createdAt,value
2018-05-15T00:00:28.085Z,1.70
2018-05-15T00:02:56.349Z,2.07
2018-05-15T00:05:24.620Z,1.80
2018-05-15T00:07:52.877Z,2.00
2018-05-15T00:10:21.160Z,2.03
2018-05-15T00:12:49.538Z,1.50
2018-05-15T00:15:17.829Z,2.13
2018-05-15T00:17:46.099Z,2.07
2018-05-15T00:20:14.376Z,1.63
2018-05-15T00:22:42.656Z,2.30
2018-05-15T00:25:10.926Z,1.73
2018-05-15T00:27:39.209Z,2.40
2018-05-15T00:30:07.474Z,1.80
2018-05-15T00:32:35.756Z,2.40
2018-05-15T00:35:04.021Z,2.67
2018-05-15T00:37:32.297Z,1.80
2018-05-15T00:40:00.546Z,2.50
2018-05-15T00:42:28.811Z,1.80
2018-05-15T00:44:57.155Z,1.97
2018-05-15T00:47:25.501Z,2.10
2018-05-15T00:49:53.821Z,2.00
2018-05-15T00:52:22.098Z,2.40
2018-05-15T00:54:50.361Z,1.90
2018-05-15T00:57:18.720Z,2.30
2018-05-15T00:59:47.011Z,1.83
2018-05-15T01:02:15.375Z,1.80
2018-05-15T01:04:43.655Z,1.90
2018-05-15T01:07:11.930Z,2.20
2018-05-15T01:09:40.189Z,2.33
2018-05-15T01:12:08.484Z,2.20
2018-05-15T01:14:36.757Z,2.07
2018-05-15T01:17:05.009Z,2.40
2018-05-15T01:19:34.068Z,2.57
2018-05-15T01:22:02.345Z,2.60
2018-05-15T01:24:30.673Z,2.37
2018-05-15T01:26:58.987Z,2.13
2018-05-15T01:29:27.329Z,2.43
2018-05-15T01:31:55.584Z,2.17
2018-05-15T01:34:24.664Z,2.10
2018-05-15T01:36:53.797Z,2.50
2018-05-15T01:39:22.048Z,2.50
2018-05-15T01:41:51.082Z,2.60
2018-05-15T01:44:19.375Z,2.20
2018-05-15T01:46:47.731Z,2.50
2018-05-15T01:49:16.008Z,2.57
2018-05-15T01:51:44.253Z,2.57
2018-05-15T01:54:13.370Z,2.23
2018-05-15T01:56:41.659Z,2.47
2018-05-15T01:59:09.912Z,2.57
2018-05-15T02:01:38.181Z,2.95
2018-05-15T02:04:07.251Z,2.40
2018-05-15T02:06:35.516Z,2.50
2018-05-15T02:09:03.770Z,2.20
2018-05-15T02:11:32.041Z,2.40
2018-05-15T02:14:00.286Z,2.60
2018-05-15T02:16:28.548Z,2.67
2018-05-15T02:18:57.773Z,2.67
2018-05-15T02:21:26.029Z,2.00
2018-05-15T02:23:55.141Z,2.80
2018-05-15T02:26:23.415Z,2.43
2018-05-15T02:28:51.666Z,2.37
2018-05-15T02:31:19.938Z,2.70
2018-05-15T02:33:48.213Z,2.80
2018-05-15T02:36:16.539Z,2.40
2018-05-15T02:38:44.808Z,2.20
2018-05-15T02:41:13.114Z,2.87
2018-05-15T02:43:41.525Z,2.30
2018-05-15T02:46:09.816Z,2.20
2018-05-15T02:48:39.004Z,2.40
2018-05-15T02:51:08.032Z,2.43
2018-05-15T02:53:36.305Z,2.63
2018-05-15T02:56:04.682Z,2.83
2018-05-15T02:58:32.873Z,2.50
2018-05-15T03:01:01.233Z,2.10
2018-05-15T03:03:29.533Z,2.50
2018-05-15T03:05:57.793Z,2.70
2018-05-15T03:08:26.037Z,2.43
2018-05-15T03:10:55.074Z,2.50
2018-05-15T03:13:23.327Z,3.60
2018-05-15T03:15:51.596Z,2.60
2018-05-15T03:18:20.701Z,2.73
2018-05-15T03:20:48.979Z,3.30
2018-05-15T03:23:17.228Z,3.10
2018-05-15T03:25:45.497Z,2.87
2018-05-15T03:28:13.814Z,2.93
2018-05-15T03:30:42.090Z,2.50
2018-05-15T03:33:10.466Z,2.97
2018-05-15T03:35:38.739Z,3.27
2018-05-15T03:38:07.013Z,2.80
2018-05-15T03:40:35.308Z,3.00
2018-05-15T03:43:03.558Z,2.70
2018-05-15T03:45:31.844Z,2.30
2018-05-15T03:48:00.232Z,3.07
2018-05-15T03:50:28.513Z,2.47
2018-05-15T03:52:56.780Z,2.33
2018-05-15T03:55:25.047Z,2.33
2018-05-15T03:57:53.305Z,2.60
2018-05-15T04:00:40.103Z,3.00
2018-05-15T04:03:26.861Z,2.53
2018-05-15T04:06:12.961Z,2.93
2018-05-15T04:08:42.693Z,2.87
2018-05-15T04:11:11.694Z,3.40
2018-05-15T04:13:39.912Z,2.97
2018-05-15T04:16:08.299Z,2.80
2018-05-15T04:18:36.595Z,2.57
2018-05-15T04:21:04.857Z,2.87
2018-05-15T04:23:33.168Z,2.70
2018-05-15T04:26:01.447Z,3.12
2018-05-15T04:28:29.808Z,2.67
2018-05-15T04:30:58.007Z,2.73
2018-05-15T04:33:26.269Z,3.23
2018-05-15T04:35:54.619Z,2.83
2018-05-15T04:38:22.872Z,2.43
2018-05-15T04:40:51.890Z,2.80
2018-05-15T04:43:20.267Z,2.77
2018-05-15T04:45:48.690Z,2.95
2018-05-15T04:48:17.041Z,2.80
2018-05-15T04:50:45.317Z,2.80
2018-05-15T04:53:13.676Z,3.00
2018-05-15T04:55:41.949Z,3.10
2018-05-15T04:58:10.235Z,2.93
2018-05-15T05:00:38.508Z,3.47
2018-05-15T05:03:06.788Z,3.13
2018-05-15T05:05:35.156Z,2.37
2018-05-15T05:08:03.427Z,2.87
2018-05-15T05:10:31.706Z,2.77
2018-05-15T05:13:00.148Z,2.85
2018-05-15T05:15:28.403Z,2.90
2018-05-15T05:17:56.662Z,3.20
2018-05-15T05:20:24.933Z,2.67
2018-05-15T05:22:53.188Z,2.63
2018-05-15T05:25:21.433Z,3.07
2018-05-15T05:27:49.721Z,3.07
2018-05-15T05:30:18.759Z,2.73
2018-05-15T05:32:47.017Z,2.63
2018-05-15T05:35:15.288Z,3.40
2018-05-15T05:37:43.553Z,2.40
2018-05-15T05:40:12.691Z,2.90
2018-05-15T05:42:40.973Z,2.93
2018-05-15T05:45:09.216Z,2.40
2018-05-15T05:47:37.493Z,3.00
2018-05-15T05:50:05.769Z,2.60
2018-05-15T05:52:34.033Z,2.40
2018-05-15T05:55:03.049Z,3.10
2018-05-15T05:57:31.307Z,2.60
2018-05-15T05:59:59.593Z,2.53
2018-05-15T06:02:27.838Z,3.03
2018-05-15T06:04:56.966Z,2.70
2018-05-15T06:07:25.235Z,2.87
2018-05-15T06:09:54.324Z,2.97
2018-05-15T06:12:22.624Z,3.13
2018-05-15T06:14:50.906Z,3.03
2018-05-15T06:17:19.162Z,2.77
2018-05-15T06:19:47.443Z,2.73
2018-05-15T06:22:15.698Z,3.00
2018-05-15T06:24:44.717Z,2.50
2018-05-15T06:27:12.972Z,2.47
2018-05-15T06:29:41.227Z,3.00
2018-05-15T06:32:09.546Z,2.87
2018-05-15T06:34:37.805Z,3.10
2018-05-15T06:37:06.082Z,2.73
2018-05-15T06:39:35.184Z,2.87
2018-05-15T06:42:03.469Z,3.15
2018-05-15T06:44:31.730Z,2.80
2018-05-15T06:47:00.009Z,2.60
2018-05-15T06:49:28.276Z,2.50
2018-05-15T06:51:57.301Z,2.77
2018-05-15T06:54:25.566Z,2.80
2018-05-15T06:56:53.832Z,2.60
2018-05-15T06:59:22.096Z,2.70
2018-05-15T07:01:50.389Z,2.83
2018-05-15T07:04:19.404Z,3.33
2018-05-15T07:06:47.756Z,3.17
2018-05-15T07:09:16.048Z,2.50
2018-05-15T07:11:44.313Z,3.03
2018-05-15T07:14:12.601Z,2.37
2018-05-15T07:16:40.866Z,2.40
2018-05-15T07:19:09.129Z,2.80
2018-05-15T07:21:38.149Z,2.90
2018-05-15T07:24:06.417Z,2.80
2018-05-15T07:26:34.689Z,2.23
2018-05-15T07:29:02.968Z,3.57
2018-05-15T07:31:31.241Z,2.60
2018-05-15T07:33:59.508Z,2.57
2018-05-15T07:36:28.528Z,2.67
2018-05-15T07:38:56.776Z,2.20
2018-05-15T07:41:25.851Z,2.23
2018-05-15T07:43:54.088Z,2.50
2018-05-15T07:46:22.359Z,2.55
2018-05-15T07:48:50.622Z,2.27
2018-05-15T07:51:18.878Z,2.20
2018-05-15T07:53:47.239Z,2.20
2018-05-15T07:56:15.441Z,2.20
2018-05-15T07:58:43.692Z,2.43
2018-05-15T08:01:12.716Z,2.20
2018-05-15T08:03:40.977Z,2.10
2018-05-15T08:06:09.233Z,2.27
2018-05-15T08:08:38.362Z,2.03
2018-05-15T08:11:06.625Z,2.47
2018-05-15T08:13:34.925Z,2.23
2018-05-15T08:16:03.189Z,2.10
2018-05-15T08:18:31.481Z,2.20
2018-05-15T08:20:59.845Z,2.30
2018-05-15T08:23:28.090Z,1.90
2018-05-15T08:25:57.121Z,2.00
2018-05-15T08:28:25.402Z,2.20
2018-05-15T08:30:53.746Z,2.30
2018-05-15T08:33:21.958Z,1.90
2018-05-15T08:35:50.226Z,2.20
2018-05-15T08:38:18.492Z,2.73
2018-05-15T08:40:46.761Z,2.03
2018-05-15T08:43:15.045Z,2.20
2018-05-15T08:45:43.297Z,2.10
2018-05-15T08:48:12.422Z,2.47
2018-05-15T08:50:40.697Z,2.93
2018-05-15T08:53:08.954Z,2.30
2018-05-15T08:55:37.996Z,2.30
2018-05-15T08:58:06.339Z,2.30
2018-05-15T09:00:35.362Z,2.27
2018-05-15T09:03:03.717Z,1.70
2018-05-15T09:05:31.976Z,2.00
2018-05-15T09:08:00.244Z,2.17
2018-05-15T09:10:29.281Z,3.07
2018-05-15T09:12:57.633Z,2.57
2018-05-15T09:15:25.885Z,2.30
2018-05-15T09:17:54.928Z,3.90
2018-05-15T09:20:23.288Z,2.53
2018-05-15T09:22:51.555Z,2.28
2018-05-15T09:25:19.824Z,2.07
2018-05-15T09:27:48.123Z,2.10
2018-05-15T09:30:16.398Z,2.50
2018-05-15T09:32:44.668Z,2.17
2018-05-15T09:35:12.933Z,2.30
2018-05-15T09:37:41.228Z,2.60
2018-05-15T09:40:09.619Z,2.00
2018-05-15T09:42:37.875Z,2.20
2018-05-15T09:45:06.133Z,2.87
2018-05-15T09:47:35.198Z,2.20
2018-05-15T09:50:03.453Z,2.70
2018-05-15T09:52:31.796Z,2.10
2018-05-15T09:55:00.092Z,2.40
2018-05-15T09:57:28.449Z,2.03
2018-05-15T09:59:56.739Z,2.37
2018-05-15T10:02:25.109Z,2.27
2018-05-15T10:04:53.378Z,1.90
2018-05-15T10:07:21.665Z,2.20
2018-05-15T10:09:49.925Z,2.33
2018-05-15T10:12:18.960Z,2.17
2018-05-15T10:14:47.216Z,2.40
2018-05-15T10:17:15.490Z,2.30
2018-05-15T10:19:43.766Z,2.03
2018-05-15T10:22:12.024Z,2.03
2018-05-15T10:24:40.321Z,1.80
2018-05-15T10:27:08.590Z,2.37
2018-05-15T10:29:36.857Z,2.50
2018-05-15T10:32:05.121Z,1.83
2018-05-15T10:34:34.237Z,1.80
2018-05-15T10:37:02.493Z,2.10
2018-05-15T10:39:31.609Z,2.23
2018-05-15T10:41:59.914Z,1.90
2018-05-15T10:44:28.907Z,2.00
2018-05-15T10:46:57.251Z,2.17
2018-05-15T10:49:25.530Z,1.90
2018-05-15T10:51:53.828Z,2.00
2018-05-15T10:54:22.101Z,2.00
2018-05-15T10:56:50.374Z,2.20
2018-05-15T10:59:18.678Z,3.20
2018-05-15T11:01:46.976Z,2.00
2018-05-15T11:04:15.296Z,2.00
2018-05-15T11:06:43.580Z,1.73
2018-05-15T11:09:11.949Z,2.47
2018-05-15T11:11:40.223Z,2.10
2018-05-15T11:14:08.473Z,2.13
2018-05-15T11:16:37.513Z,2.13
2018-05-15T11:22:38.855Z,1.60
2018-05-15T11:25:07.959Z,1.87
2018-05-15T11:27:36.215Z,2.13
2018-05-15T11:30:05.251Z,2.00
2018-05-15T11:32:33.502Z,1.90
2018-05-15T11:35:01.793Z,2.27
2018-05-15T11:37:30.057Z,1.97
2018-05-15T11:39:58.317Z,1.70
2018-05-15T11:42:27.439Z,2.23
2018-05-15T11:44:55.705Z,2.37
2018-05-15T11:47:23.987Z,2.23
2018-05-15T11:49:53.829Z,2.73
2018-05-15T11:52:22.170Z,2.13
2018-05-15T11:54:49.734Z,2.17
2018-05-15T11:57:17.992Z,2.10
2018-05-15T11:59:47.130Z,2.20
2018-05-15T12:02:15.357Z,2.20
2018-05-15T12:04:44.476Z,1.97
2018-05-15T12:07:12.757Z,2.30
2018-05-15T12:09:41.008Z,5.60
2018-05-15T12:12:10.126Z,2.37
2018-05-15T12:14:38.405Z,2.10
2018-05-15T12:17:06.653Z,2.60
2018-05-15T12:19:35.666Z,3.13
2018-05-15T12:22:03.934Z,2.97
2018-05-15T12:24:33.072Z,2.40
2018-05-15T12:27:01.330Z,2.20
2018-05-15T12:29:29.604Z,2.40
2018-05-15T12:31:57.969Z,2.00
2018-05-15T12:34:26.221Z,1.93
2018-05-15T12:36:55.344Z,2.60
2018-05-15T12:39:23.592Z,2.30
2018-05-15T12:41:52.750Z,1.80
2018-05-15T12:44:20.893Z,2.47
2018-05-15T12:46:49.259Z,2.30
2018-05-15T12:49:17.441Z,2.20
2018-05-15T12:51:45.725Z,2.60
2018-05-15T12:54:14.044Z,2.40
2018-05-15T12:56:43.002Z,2.30
2018-05-15T12:59:11.280Z,2.63
2018-05-15T13:01:39.596Z,1.90
2018-05-15T13:04:08.633Z,2.10
2018-05-15T13:06:36.912Z,2.40
2018-05-15T13:09:05.200Z,2.07
2018-05-15T13:11:33.437Z,2.20
2018-05-15T13:14:02.556Z,2.30
2018-05-15T13:16:30.804Z,1.80
2018-05-15T13:18:59.832Z,2.23
2018-05-15T13:21:28.129Z,2.03
2018-05-15T13:23:56.396Z,2.30
2018-05-15T13:26:24.670Z,1.97
2018-05-15T13:28:52.961Z,2.43
2018-05-15T13:31:21.223Z,2.27
2018-05-15T13:33:49.476Z,2.00
2018-05-15T13:36:18.598Z,2.27
2018-05-15T13:38:46.849Z,1.90
2018-05-15T13:41:15.137Z,2.20
2018-05-15T13:43:43.412Z,1.90
2018-05-15T13:46:11.656Z,1.90
2018-05-15T13:48:40.685Z,2.10
2018-05-15T13:51:08.971Z,2.00
2018-05-15T13:53:37.228Z,1.80
2018-05-15T13:56:05.508Z,1.70
2018-05-15T13:58:33.809Z,2.10
2018-05-15T14:01:02.061Z,2.17
2018-05-15T14:03:30.311Z,2.03
2018-05-15T14:06:00.590Z,2.10
2018-05-15T14:08:28.849Z,2.00
2018-05-15T14:10:57.116Z,2.03
2018-05-15T14:13:25.397Z,2.20
2018-05-15T14:15:53.654Z,2.00
2018-05-15T14:18:21.913Z,1.70
2018-05-15T14:20:50.217Z,2.00
2018-05-15T14:23:18.480Z,1.80
2018-05-15T14:25:47.597Z,1.83
2018-05-15T14:28:15.881Z,2.03
2018-05-15T14:30:44.128Z,2.30
2018-05-15T14:33:13.240Z,2.20
2018-05-15T14:35:41.514Z,2.03
2018-05-15T14:38:09.796Z,2.03
2018-05-15T14:40:38.079Z,1.80
2018-05-15T14:43:20.165Z,2.43
2018-05-15T14:45:48.421Z,2.53
2018-05-15T14:48:16.697Z,2.20
2018-05-15T14:54:20.557Z,2.30
2018-05-15T14:56:48.936Z,1.80
2018-05-15T14:59:17.213Z,2.00
2018-05-15T15:01:45.479Z,2.00
2018-05-15T15:04:13.760Z,2.23
2018-05-15T15:06:42.034Z,2.70
2018-05-15T15:09:10.284Z,2.27
2018-05-15T15:11:39.315Z,2.30
2018-05-15T15:14:07.574Z,2.03
2018-05-15T15:16:35.858Z,1.90
2018-05-15T15:19:04.145Z,2.03
2018-05-15T15:21:32.414Z,2.23
2018-05-15T15:24:00.703Z,2.20
2018-05-15T15:26:28.969Z,2.20
2018-05-15T15:28:57.225Z,2.30
2018-05-15T15:31:26.253Z,2.00
2018-05-15T15:33:54.608Z,2.23
2018-05-15T15:36:22.893Z,2.03
2018-05-15T15:38:51.160Z,2.10
2018-05-15T15:41:19.434Z,2.23
2018-05-15T15:43:47.738Z,1.90
2018-05-15T15:46:15.979Z,1.80
2018-05-15T15:48:45.185Z,2.20
2018-05-15T15:51:13.443Z,2.10
2018-05-15T15:53:42.564Z,2.03
2018-05-15T15:56:10.850Z,2.10
2018-05-15T15:58:39.129Z,3.93
2018-05-15T16:01:07.441Z,1.97
2018-05-15T16:03:36.480Z,2.07
2018-05-15T16:06:04.734Z,1.90
2018-05-15T16:08:33.757Z,2.30
2018-05-15T16:11:04.012Z,2.55
2018-05-15T16:13:32.252Z,2.60
2018-05-15T16:16:00.496Z,2.70
2018-05-15T16:18:28.761Z,2.33
2018-05-15T16:20:57.012Z,2.47
2018-05-15T16:23:25.358Z,2.60
2018-05-15T16:25:53.656Z,2.17
2018-05-15T16:28:21.923Z,2.30
2018-05-15T16:30:50.223Z,2.80
2018-05-15T16:33:18.480Z,2.13
2018-05-15T16:35:46.729Z,2.53
2018-05-15T16:38:15.037Z,2.57
2018-05-15T16:40:43.308Z,2.30
2018-05-15T16:43:11.561Z,2.23
2018-05-15T16:45:39.820Z,2.13
2018-05-15T16:48:08.945Z,3.07
2018-05-15T16:50:37.193Z,3.10
2018-05-15T16:53:06.209Z,2.40
2018-05-15T16:55:34.484Z,2.17
2018-05-15T16:58:02.739Z,2.90
2018-05-15T17:00:31.749Z,2.70
2018-05-15T17:03:00.028Z,2.30
2018-05-15T17:05:28.281Z,2.63
2018-05-15T17:07:57.372Z,3.00
2018-05-15T17:10:25.692Z,2.83
2018-05-15T17:12:53.933Z,2.10
2018-05-15T17:15:22.954Z,2.73
2018-05-15T17:17:51.220Z,2.90
2018-05-15T17:20:19.504Z,2.60
2018-05-15T17:22:47.767Z,2.70
2018-05-15T17:25:16.804Z,2.47
2018-05-15T17:27:45.058Z,2.47
2018-05-15T17:30:13.309Z,2.33
2018-05-15T17:32:42.344Z,2.70
2018-05-15T17:35:10.697Z,2.73
2018-05-15T17:37:38.963Z,3.07
2018-05-15T17:40:08.075Z,2.40
2018-05-15T17:42:36.366Z,2.93
2018-05-15T17:45:04.626Z,2.37
2018-05-15T17:47:32.947Z,2.43
2018-05-15T17:50:01.165Z,3.00
2018-05-15T17:52:29.431Z,2.37
2018-05-15T17:54:57.726Z,2.20
2018-05-15T17:57:26.013Z,2.43
2018-05-15T17:59:54.319Z,2.60
2018-05-15T18:02:22.623Z,2.70
2018-05-15T18:04:51.720Z,2.47
2018-05-15T18:07:20.850Z,2.07
2018-05-15T18:09:49.303Z,2.70
2018-05-15T18:12:18.552Z,2.37
2018-05-15T18:14:49.018Z,2.90
2018-05-15T18:17:18.389Z,2.70
2018-05-15T18:19:48.883Z,2.60
2018-05-15T18:22:18.366Z,2.43
2018-05-15T18:24:47.560Z,2.20
2018-05-15T18:27:17.316Z,2.50
2018-05-15T18:29:47.787Z,2.97
2018-05-15T18:32:17.582Z,2.63
2018-05-15T18:34:47.547Z,2.13
2018-05-15T18:37:17.418Z,2.37
2018-05-15T18:39:47.277Z,2.50
2018-05-15T18:42:17.192Z,2.53
2018-05-15T18:44:47.158Z,2.10
2018-05-15T18:47:17.119Z,2.17
2018-05-15T18:49:46.946Z,2.30
2018-05-15T18:52:17.586Z,2.40
2018-05-15T18:54:47.218Z,2.33
2018-05-15T18:57:18.043Z,2.23
2018-05-15T18:59:47.931Z,2.77
2018-05-15T19:02:18.680Z,2.77
2018-05-15T19:04:49.407Z,2.70
2018-05-15T19:07:20.151Z,2.73
2018-05-15T19:09:50.828Z,2.60
2018-05-15T19:12:21.007Z,2.63
2018-05-15T19:14:50.337Z,2.60
2018-05-15T19:17:20.047Z,2.63
2018-05-15T19:19:49.960Z,3.30
2018-05-15T19:22:19.802Z,2.60
2018-05-15T19:24:49.800Z,3.10
2018-05-15T19:27:19.969Z,3.00
2018-05-15T19:29:50.123Z,2.50
2018-05-15T19:32:20.075Z,3.10
2018-05-15T19:34:55.191Z,2.87
2018-05-15T19:37:25.192Z,2.80
2018-05-15T19:39:57.460Z,3.00
2018-05-15T19:42:27.429Z,2.90
2018-05-15T19:44:57.108Z,3.10
2018-05-15T19:47:27.150Z,2.30
2018-05-15T19:49:56.999Z,3.27
2018-05-15T19:52:26.992Z,2.87
2018-05-15T19:54:57.914Z,3.53
2018-05-15T19:57:27.618Z,3.57
2018-05-15T19:59:57.211Z,4.10
2018-05-15T20:02:27.112Z,4.20
2018-05-15T20:04:57.718Z,4.90
2018-05-15T20:07:27.737Z,5.03
2018-05-15T20:09:57.699Z,4.70
2018-05-15T20:12:27.950Z,4.93
2018-05-15T20:14:58.451Z,4.20
2018-05-15T20:17:28.351Z,4.33
2018-05-15T20:19:58.239Z,5.20
2018-05-15T20:22:28.326Z,3.90
2018-05-15T20:24:59.163Z,4.00
2018-05-15T20:27:29.018Z,4.43
2018-05-15T20:29:59.055Z,4.13
2018-05-15T20:32:29.211Z,4.00
2018-05-15T20:34:59.075Z,3.60
2018-05-15T20:37:30.039Z,4.63
2018-05-15T20:39:59.886Z,4.40
2018-05-15T20:42:30.556Z,4.00
2018-05-15T20:45:00.458Z,3.17
2018-05-15T20:47:30.856Z,3.50
2018-05-15T20:50:01.522Z,3.10
2018-05-15T20:52:31.421Z,4.20
2018-05-15T20:55:01.196Z,3.90
2018-05-15T20:57:29.942Z,4.23
2018-05-15T20:59:59.174Z,3.47
2018-05-15T21:02:27.537Z,4.13
2018-05-15T21:04:55.938Z,3.83
2018-05-15T21:07:24.226Z,4.23
2018-05-15T21:09:52.512Z,3.70
2018-05-15T21:12:20.786Z,3.60
2018-05-15T21:14:49.068Z,4.00
2018-05-15T21:17:17.315Z,2.87
2018-05-15T21:19:46.341Z,3.70
2018-05-15T21:22:14.614Z,3.47
2018-05-15T21:24:42.864Z,3.60
2018-05-15T21:27:11.877Z,4.77
2018-05-15T21:29:40.163Z,4.00
2018-05-15T21:32:08.413Z,3.77
2018-05-15T21:34:37.432Z,4.37
2018-05-15T21:37:05.781Z,4.30
2018-05-15T21:39:34.821Z,4.07
2018-05-15T21:42:03.077Z,4.70
2018-05-15T21:44:31.345Z,3.70
2018-05-15T21:46:59.611Z,3.77
2018-05-15T21:49:28.721Z,3.60
2018-05-15T21:51:56.993Z,3.73
2018-05-15T21:54:25.270Z,3.73
2018-05-15T21:56:53.542Z,4.30
2018-05-15T21:59:21.824Z,4.27
2018-05-15T22:01:50.080Z,4.40
2018-05-15T22:04:19.093Z,4.37
2018-05-15T22:06:47.365Z,3.70
2018-05-15T22:09:15.656Z,3.87
2018-05-15T22:12:01.737Z,3.90
2018-05-15T22:14:47.803Z,4.47
2018-05-15T22:17:33.930Z,4.63
2018-05-15T22:20:19.881Z,3.83
2018-05-15T22:22:47.360Z,3.27
2018-05-15T22:25:16.385Z,4.17
2018-05-15T22:27:44.641Z,3.97
2018-05-15T22:30:12.913Z,4.30
2018-05-15T22:32:41.927Z,4.80
2018-05-15T22:35:10.198Z,5.13
2018-05-15T22:37:38.467Z,3.70
2018-05-15T22:40:06.716Z,4.73
2018-05-15T22:42:35.849Z,4.37
2018-05-15T22:45:04.117Z,4.50
2018-05-15T22:47:32.375Z,4.27
2018-05-15T22:50:01.395Z,4.30
2018-05-15T22:52:29.652Z,3.63
2018-05-15T22:54:57.940Z,4.30
2018-05-15T22:57:26.219Z,4.87
2018-05-15T22:59:54.490Z,4.57
2018-05-15T23:02:22.784Z,4.63
2018-05-15T23:04:51.032Z,4.97
2018-05-15T23:07:20.149Z,4.03
2018-05-15T23:09:48.407Z,5.17
2018-05-15T23:12:17.517Z,4.63
2018-05-15T23:14:45.784Z,4.30
2018-05-15T23:17:14.059Z,4.57
2018-05-15T23:19:42.306Z,5.10
2018-05-15T23:25:10.780Z,4.33
2018-05-15T23:27:39.125Z,4.43
2018-05-15T23:30:07.421Z,4.57
2018-05-15T23:32:35.680Z,4.37
2018-05-15T23:35:03.948Z,4.30
2018-05-15T23:37:32.202Z,4.60
2018-05-15T23:40:01.218Z,5.00
2018-05-15T23:42:29.598Z,4.63
2018-05-15T23:44:57.845Z,3.40
2018-05-15T23:47:26.966Z,3.97
2018-05-15T23:49:55.261Z,3.53
2018-05-15T23:52:23.528Z,4.30
2018-05-15T23:54:51.785Z,3.50
2018-05-15T23:57:20.056Z,3.50
2018-05-15T23:59:49.073Z,3.50
